sensor_id;sensor_type;location;lat;lon;timestamp;pressure;altitude;pressure_sealevel;temperature;humidity
41040;BME280;48586;50.122;18.972;2022-08-18T00:01:20;98225.19;;;23.54;63.18
41040;BME280;48586;50.122;18.972;2022-08-18T00:04:23;98221.53;;;23.50;63.49
41040;BME280;48586;50.122;18.972;2022-08-18T00:07:29;98229.44;;;23.47;63.62
41040;BME280;48586;50.122;18.972;2022-08-18T00:10:32;98233.22;;;23.46;63.74
41040;BME280;48586;50.122;18.972;2022-08-18T00:13:34;98244.88;;;23.46;63.63
41040;BME280;48586;50.122;18.972;2022-08-18T00:16:38;98245.97;;;23.45;63.30
41040;BME280;48586;50.122;18.972;2022-08-18T00:19:40;98240.06;;;23.43;63.70
41040;BME280;48586;50.122;18.972;2022-08-18T00:22:42;98235.03;;;23.36;63.63
41040;BME280;48586;50.122;18.972;2022-08-18T00:25:44;98226.25;;;23.31;63.86
41040;BME280;48586;50.122;18.972;2022-08-18T00:28:50;98233.31;;;23.27;63.86
41040;BME280;48586;50.122;18.972;2022-08-18T00:31:53;98218.53;;;23.24;64.10
41040;BME280;48586;50.122;18.972;2022-08-18T00:34:55;98219.13;;;23.21;64.16
41040;BME280;48586;50.122;18.972;2022-08-18T00:37:59;98220.50;;;23.18;64.33
41040;BME280;48586;50.122;18.972;2022-08-18T00:41:02;98220.81;;;23.17;64.15
41040;BME280;48586;50.122;18.972;2022-08-18T00:44:04;98213.28;;;23.14;64.29
41040;BME280;48586;50.122;18.972;2022-08-18T00:47:08;98215.63;;;23.07;64.32
41040;BME280;48586;50.122;18.972;2022-08-18T00:50:15;98218.69;;;23.00;64.76
41040;BME280;48586;50.122;18.972;2022-08-18T00:53:22;98215.59;;;22.93;64.90
41040;BME280;48586;50.122;18.972;2022-08-18T00:56:29;98215.88;;;22.91;64.88
41040;BME280;48586;50.122;18.972;2022-08-18T00:59:37;98226.00;;;22.86;65.16
41040;BME280;48586;50.122;18.972;2022-08-18T01:02:48;98227.97;;;22.80;65.27
41040;BME280;48586;50.122;18.972;2022-08-18T01:05:55;98232.97;;;22.73;65.16
41040;BME280;48586;50.122;18.972;2022-08-18T01:08:59;98223.34;;;22.67;65.34
41040;BME280;48586;50.122;18.972;2022-08-18T01:12:01;98224.13;;;22.54;65.11
41040;BME280;48586;50.122;18.972;2022-08-18T01:15:04;98225.88;;;22.44;65.49
41040;BME280;48586;50.122;18.972;2022-08-18T01:18:10;98223.56;;;22.38;65.70
41040;BME280;48586;50.122;18.972;2022-08-18T01:21:31;98220.13;;;22.32;65.97
41040;BME280;48586;50.122;18.972;2022-08-18T01:24:55;98221.22;;;22.31;66.09
41040;BME280;48586;50.122;18.972;2022-08-18T01:28:29;98212.13;;;22.27;65.84
41040;BME280;48586;50.122;18.972;2022-08-18T01:31:35;98209.72;;;22.26;66.25
41040;BME280;48586;50.122;18.972;2022-08-18T01:34:38;98200.22;;;22.28;66.12
41040;BME280;48586;50.122;18.972;2022-08-18T01:37:40;98199.41;;;22.28;66.11
41040;BME280;48586;50.122;18.972;2022-08-18T01:40:44;98202.31;;;22.31;66.21
41040;BME280;48586;50.122;18.972;2022-08-18T01:43:48;98203.72;;;22.29;66.27
41040;BME280;48586;50.122;18.972;2022-08-18T01:46:50;98204.00;;;22.27;66.69
41040;BME280;48586;50.122;18.972;2022-08-18T01:49:52;98186.72;;;22.28;66.84
41040;BME280;48586;50.122;18.972;2022-08-18T01:52:57;98179.72;;;22.27;66.71
41040;BME280;48586;50.122;18.972;2022-08-18T01:56:01;98174.53;;;22.31;67.30
41040;BME280;48586;50.122;18.972;2022-08-18T01:59:05;98179.41;;;22.29;67.14
41040;BME280;48586;50.122;18.972;2022-08-18T02:02:11;98178.91;;;22.27;69.36
41040;BME280;48586;50.122;18.972;2022-08-18T02:05:22;98180.91;;;22.21;66.66
41040;BME280;48586;50.122;18.972;2022-08-18T02:08:25;98180.13;;;22.21;66.84
41040;BME280;48586;50.122;18.972;2022-08-18T02:11:29;98180.91;;;22.21;67.17
41040;BME280;48586;50.122;18.972;2022-08-18T02:14:31;98186.88;;;22.18;67.20
41040;BME280;48586;50.122;18.972;2022-08-18T02:17:36;98190.16;;;22.15;67.67
41040;BME280;48586;50.122;18.972;2022-08-18T02:20:39;98180.78;;;22.12;67.36
41040;BME280;48586;50.122;18.972;2022-08-18T02:23:42;98184.84;;;22.10;67.61
41040;BME280;48586;50.122;18.972;2022-08-18T02:26:46;98183.53;;;22.07;68.11
41040;BME280;48586;50.122;18.972;2022-08-18T02:29:48;98195.44;;;22.06;67.57
41040;BME280;48586;50.122;18.972;2022-08-18T02:32:50;98193.91;;;22.00;68.05
41040;BME280;48586;50.122;18.972;2022-08-18T02:35:53;98199.09;;;21.97;67.80
41040;BME280;48586;50.122;18.972;2022-08-18T02:38:56;98196.41;;;21.97;67.97
41040;BME280;48586;50.122;18.972;2022-08-18T02:41:59;98202.09;;;21.95;68.26
41040;BME280;48586;50.122;18.972;2022-08-18T02:45:05;98199.97;;;21.92;68.19
41040;BME280;48586;50.122;18.972;2022-08-18T02:48:08;98205.69;;;21.90;70.17
41040;BME280;48586;50.122;18.972;2022-08-18T02:51:12;98205.44;;;21.87;67.65
41040;BME280;48586;50.122;18.972;2022-08-18T02:54:14;98208.94;;;21.87;67.74
41040;BME280;48586;50.122;18.972;2022-08-18T02:57:17;98214.03;;;21.89;68.00
41040;BME280;48586;50.122;18.972;2022-08-18T03:00:24;98218.63;;;21.88;67.99
41040;BME280;48586;50.122;18.972;2022-08-18T03:03:26;98220.00;;;21.86;68.04
41040;BME280;48586;50.122;18.972;2022-08-18T03:06:28;98221.91;;;21.85;68.01
41040;BME280;48586;50.122;18.972;2022-08-18T03:09:31;98233.31;;;21.82;68.32
41040;BME280;48586;50.122;18.972;2022-08-18T03:12:35;98228.50;;;21.79;68.11
41040;BME280;48586;50.122;18.972;2022-08-18T03:15:37;98219.66;;;21.74;68.08
41040;BME280;48586;50.122;18.972;2022-08-18T03:18:39;98232.91;;;21.70;68.16
41040;BME280;48586;50.122;18.972;2022-08-18T03:21:43;98222.38;;;21.68;68.14
41040;BME280;48586;50.122;18.972;2022-08-18T03:24:45;98217.59;;;21.65;68.23
41040;BME280;48586;50.122;18.972;2022-08-18T03:27:48;98227.84;;;21.63;68.44
41040;BME280;48586;50.122;18.972;2022-08-18T03:30:50;98228.44;;;21.60;68.12
41040;BME280;48586;50.122;18.972;2022-08-18T03:33:52;98232.03;;;21.56;68.16
41040;BME280;48586;50.122;18.972;2022-08-18T03:36:54;98225.06;;;21.50;68.38
41040;BME280;48586;50.122;18.972;2022-08-18T03:39:56;98230.22;;;21.46;68.61
41040;BME280;48586;50.122;18.972;2022-08-18T03:43:02;98227.31;;;21.42;68.86
41040;BME280;48586;50.122;18.972;2022-08-18T03:46:08;98222.22;;;21.41;68.66
41040;BME280;48586;50.122;18.972;2022-08-18T03:49:10;98227.91;;;21.39;68.73
41040;BME280;48586;50.122;18.972;2022-08-18T03:52:13;98234.41;;;21.38;68.86
41040;BME280;48586;50.122;18.972;2022-08-18T03:55:15;98234.91;;;21.40;68.87
41040;BME280;48586;50.122;18.972;2022-08-18T03:58:18;98232.13;;;21.45;68.90
41040;BME280;48586;50.122;18.972;2022-08-18T04:01:21;98235.56;;;21.51;68.77
41040;BME280;48586;50.122;18.972;2022-08-18T04:04:26;98239.09;;;21.52;68.94
41040;BME280;48586;50.122;18.972;2022-08-18T04:07:28;98229.38;;;21.51;68.99
41040;BME280;48586;50.122;18.972;2022-08-18T04:10:31;98233.38;;;21.53;68.98
41040;BME280;48586;50.122;18.972;2022-08-18T04:13:36;98233.88;;;21.55;69.01
41040;BME280;48586;50.122;18.972;2022-08-18T04:16:39;98232.22;;;21.59;69.21
41040;BME280;48586;50.122;18.972;2022-08-18T04:19:42;98237.03;;;21.62;69.32
41040;BME280;48586;50.122;18.972;2022-08-18T04:22:44;98232.97;;;21.65;69.29
41040;BME280;48586;50.122;18.972;2022-08-18T04:25:54;98229.94;;;21.72;69.76
41040;BME280;48586;50.122;18.972;2022-08-18T04:28:58;98230.16;;;21.75;68.98
41040;BME280;48586;50.122;18.972;2022-08-18T04:32:02;98228.78;;;21.78;69.07
41040;BME280;48586;50.122;18.972;2022-08-18T04:35:05;98232.22;;;21.83;68.99
41040;BME280;48586;50.122;18.972;2022-08-18T04:38:07;98235.84;;;21.92;69.22
41040;BME280;48586;50.122;18.972;2022-08-18T04:41:11;98233.59;;;22.00;69.10
41040;BME280;48586;50.122;18.972;2022-08-18T04:44:15;98237.81;;;22.06;68.88
41040;BME280;48586;50.122;18.972;2022-08-18T04:47:17;98242.25;;;22.15;68.71
41040;BME280;48586;50.122;18.972;2022-08-18T04:50:19;98232.69;;;22.23;68.57
41040;BME280;48586;50.122;18.972;2022-08-18T04:53:21;98228.00;;;22.29;68.60
41040;BME280;48586;50.122;18.972;2022-08-18T04:56:40;98228.44;;;22.36;68.76
41040;BME280;48586;50.122;18.972;2022-08-18T04:59:47;98233.09;;;22.49;68.78
41040;BME280;48586;50.122;18.972;2022-08-18T05:02:49;98232.53;;;22.52;68.28
41040;BME280;48586;50.122;18.972;2022-08-18T05:05:52;98232.66;;;22.61;68.47
41040;BME280;48586;50.122;18.972;2022-08-18T05:08:55;98231.66;;;22.71;68.27
41040;BME280;48586;50.122;18.972;2022-08-18T05:11:58;98229.38;;;22.78;67.96
41040;BME280;48586;50.122;18.972;2022-08-18T05:15:01;98234.09;;;22.86;68.12
41040;BME280;48586;50.122;18.972;2022-08-18T05:18:03;98235.31;;;22.93;67.99
41040;BME280;48586;50.122;18.972;2022-08-18T05:21:05;98231.69;;;22.98;67.89
41040;BME280;48586;50.122;18.972;2022-08-18T05:24:10;98237.84;;;23.04;67.94
41040;BME280;48586;50.122;18.972;2022-08-18T05:27:13;98244.84;;;23.05;67.63
41040;BME280;48586;50.122;18.972;2022-08-18T05:30:16;98237.41;;;23.10;67.90
41040;BME280;48586;50.122;18.972;2022-08-18T05:33:18;98251.03;;;23.19;67.80
41040;BME280;48586;50.122;18.972;2022-08-18T05:36:30;98240.56;;;23.31;67.81
41040;BME280;48586;50.122;18.972;2022-08-18T05:39:46;98243.88;;;23.42;67.73
41040;BME280;48586;50.122;18.972;2022-08-18T05:42:53;98239.47;;;23.46;67.43
41040;BME280;48586;50.122;18.972;2022-08-18T05:46:00;98237.44;;;23.52;67.45
41040;BME280;48586;50.122;18.972;2022-08-18T05:49:05;98238.03;;;23.49;67.76
41040;BME280;48586;50.122;18.972;2022-08-18T05:52:12;98240.03;;;23.57;67.66
41040;BME280;48586;50.122;18.972;2022-08-18T05:55:20;98244.25;;;23.63;67.77
41040;BME280;48586;50.122;18.972;2022-08-18T05:58:44;98245.94;;;23.73;67.32
41040;BME280;48586;50.122;18.972;2022-08-18T06:01:54;98250.81;;;23.84;67.64
41040;BME280;48586;50.122;18.972;2022-08-18T06:05:00;98255.41;;;23.98;66.81
41040;BME280;48586;50.122;18.972;2022-08-18T06:08:08;98253.97;;;24.14;66.65
41040;BME280;48586;50.122;18.972;2022-08-18T06:11:16;98259.16;;;24.24;66.24
41040;BME280;48586;50.122;18.972;2022-08-18T06:14:18;98255.41;;;24.34;65.98
41040;BME280;48586;50.122;18.972;2022-08-18T06:21:24;98257.72;;;24.49;65.97
41040;BME280;48586;50.122;18.972;2022-08-18T06:24:36;98257.63;;;24.54;65.78
41040;BME280;48586;50.122;18.972;2022-08-18T06:27:43;98258.16;;;24.65;65.47
41040;BME280;48586;50.122;18.972;2022-08-18T06:30:55;98263.72;;;24.82;65.38
41040;BME280;48586;50.122;18.972;2022-08-18T06:34:10;98266.03;;;24.98;64.77
41040;BME280;48586;50.122;18.972;2022-08-18T06:37:20;98260.84;;;25.10;64.03
41040;BME280;48586;50.122;18.972;2022-08-18T06:40:27;98273.16;;;25.25;64.06
41040;BME280;48586;50.122;18.972;2022-08-18T06:43:30;98269.72;;;25.41;63.48
41040;BME280;48586;50.122;18.972;2022-08-18T06:46:41;98264.81;;;25.52;62.55
41040;BME280;48586;50.122;18.972;2022-08-18T06:49:49;98256.41;;;25.62;62.35
41040;BME280;48586;50.122;18.972;2022-08-18T06:52:57;98253.22;;;25.69;61.95
41040;BME280;48586;50.122;18.972;2022-08-18T06:56:20;98257.53;;;25.79;61.96
41040;BME280;48586;50.122;18.972;2022-08-18T06:59:25;98266.19;;;25.89;61.82
41040;BME280;48586;50.122;18.972;2022-08-18T07:02:40;98266.03;;;26.03;61.31
41040;BME280;48586;50.122;18.972;2022-08-18T07:06:00;98265.59;;;26.19;61.15
41040;BME280;48586;50.122;18.972;2022-08-18T07:09:20;98268.78;;;26.38;60.50
41040;BME280;48586;50.122;18.972;2022-08-18T07:12:25;98267.50;;;26.53;59.78
41040;BME280;48586;50.122;18.972;2022-08-18T07:15:28;98267.47;;;26.70;59.84
41040;BME280;48586;50.122;18.972;2022-08-18T07:18:31;98271.28;;;26.86;59.23
41040;BME280;48586;50.122;18.972;2022-08-18T07:21:36;98259.75;;;26.98;58.91
41040;BME280;48586;50.122;18.972;2022-08-18T07:24:43;98253.59;;;27.19;58.20
41040;BME280;48586;50.122;18.972;2022-08-18T07:27:47;98255.72;;;27.42;57.94
41040;BME280;48586;50.122;18.972;2022-08-18T07:30:49;98248.41;;;27.64;57.32
41040;BME280;48586;50.122;18.972;2022-08-18T07:33:55;98252.66;;;27.82;56.39
41040;BME280;48586;50.122;18.972;2022-08-18T07:37:03;98243.72;;;27.94;56.30
41040;BME280;48586;50.122;18.972;2022-08-18T07:40:13;98244.09;;;28.13;55.88
41040;BME280;48586;50.122;18.972;2022-08-18T07:43:24;98249.84;;;28.33;55.16
41040;BME280;48586;50.122;18.972;2022-08-18T07:46:33;98246.16;;;28.50;54.97
41040;BME280;48586;50.122;18.972;2022-08-18T07:49:38;98251.56;;;28.71;54.93
41040;BME280;48586;50.122;18.972;2022-08-18T07:52:47;98254.94;;;28.88;54.40
41040;BME280;48586;50.122;18.972;2022-08-18T07:55:54;98251.78;;;29.11;53.62
41040;BME280;48586;50.122;18.972;2022-08-18T07:59:03;98255.69;;;29.34;53.04
41040;BME280;48586;50.122;18.972;2022-08-18T08:02:18;98258.44;;;29.59;52.10
41040;BME280;48586;50.122;18.972;2022-08-18T08:05:35;98259.31;;;29.63;50.59
41040;BME280;48586;50.122;18.972;2022-08-18T08:08:46;98257.19;;;29.69;51.09
41040;BME280;48586;50.122;18.972;2022-08-18T08:11:55;98264.34;;;29.73;50.85
41040;BME280;48586;50.122;18.972;2022-08-18T08:15:04;98267.06;;;29.61;48.57
41040;BME280;48586;50.122;18.972;2022-08-18T08:18:11;98275.75;;;29.51;50.28
41040;BME280;48586;50.122;18.972;2022-08-18T08:21:17;98285.84;;;29.62;50.24
41040;BME280;48586;50.122;18.972;2022-08-18T08:24:27;98285.94;;;29.78;50.06
41040;BME280;48586;50.122;18.972;2022-08-18T08:27:43;98290.72;;;30.06;48.63
41040;BME280;48586;50.122;18.972;2022-08-18T08:30:55;98296.03;;;30.14;49.19
41040;BME280;48586;50.122;18.972;2022-08-18T08:34:08;98291.38;;;30.15;48.97
41040;BME280;48586;50.122;18.972;2022-08-18T08:37:17;98282.19;;;30.35;49.11
41040;BME280;48586;50.122;18.972;2022-08-18T08:40:25;98267.31;;;30.49;48.01
41040;BME280;48586;50.122;18.972;2022-08-18T08:43:31;98265.84;;;30.51;47.25
41040;BME280;48586;50.122;18.972;2022-08-18T08:46:42;98263.34;;;30.58;47.47
41040;BME280;48586;50.122;18.972;2022-08-18T08:49:50;98262.56;;;30.74;47.11
41040;BME280;48586;50.122;18.972;2022-08-18T08:52:58;98258.88;;;30.82;47.36
41040;BME280;48586;50.122;18.972;2022-08-18T08:56:08;98259.63;;;31.10;47.12
41040;BME280;48586;50.122;18.972;2022-08-18T08:59:16;98259.81;;;31.18;46.22
41040;BME280;48586;50.122;18.972;2022-08-18T09:02:23;98282.41;;;31.30;44.25
41040;BME280;48586;50.122;18.972;2022-08-18T09:05:36;98271.66;;;31.37;45.99
41040;BME280;48586;50.122;18.972;2022-08-18T09:08:51;98278.09;;;31.29;44.91
41040;BME280;48586;50.122;18.972;2022-08-18T09:12:16;98278.34;;;31.40;44.16
41040;BME280;48586;50.122;18.972;2022-08-18T09:15:34;98280.28;;;31.55;45.31
41040;BME280;48586;50.122;18.972;2022-08-18T09:18:59;98276.38;;;31.88;43.23
41040;BME280;48586;50.122;18.972;2022-08-18T09:22:17;98277.00;;;31.81;44.55
41040;BME280;48586;50.122;18.972;2022-08-18T09:25:31;98286.38;;;31.80;44.07
41040;BME280;48586;50.122;18.972;2022-08-18T09:28:53;98269.75;;;32.08;43.89
41040;BME280;48586;50.122;18.972;2022-08-18T09:32:39;98266.75;;;32.33;42.45
41040;BME280;48586;50.122;18.972;2022-08-18T09:39:23;98271.72;;;32.66;43.29
41040;BME280;48586;50.122;18.972;2022-08-18T09:42:47;98270.03;;;33.00;42.63
41040;BME280;48586;50.122;18.972;2022-08-18T09:45:55;98277.94;;;33.28;42.07
41040;BME280;48586;50.122;18.972;2022-08-18T09:52:46;98270.06;;;33.76;41.03
41040;BME280;48586;50.122;18.972;2022-08-18T09:55:56;98270.59;;;33.85;40.38
41040;BME280;48586;50.122;18.972;2022-08-18T09:58:58;98262.06;;;33.94;40.58
41040;BME280;48586;50.122;18.972;2022-08-18T10:02:06;98259.09;;;34.06;40.13
41040;BME280;48586;50.122;18.972;2022-08-18T10:05:26;98263.16;;;34.16;37.59
41040;BME280;48586;50.122;18.972;2022-08-18T10:12:18;98244.91;;;34.68;38.77
41040;BME280;48586;50.122;18.972;2022-08-18T10:15:29;98239.69;;;34.97;38.19
41040;BME280;48586;50.122;18.972;2022-08-18T10:18:58;98231.41;;;35.38;37.18
41040;BME280;48586;50.122;18.972;2022-08-18T10:22:06;98238.31;;;35.72;37.90
41040;BME280;48586;50.122;18.972;2022-08-18T10:25:09;98237.38;;;36.23;37.75
41040;BME280;48586;50.122;18.972;2022-08-18T10:28:51;98219.03;;;36.81;34.34
41040;BME280;48586;50.122;18.972;2022-08-18T10:32:35;98208.41;;;37.29;34.07
41040;BME280;48586;50.122;18.972;2022-08-18T10:35:55;98214.66;;;37.66;33.22
41040;BME280;48586;50.122;18.972;2022-08-18T10:38:57;98215.44;;;37.73;34.37
41040;BME280;48586;50.122;18.972;2022-08-18T10:42:04;98212.59;;;38.05;33.72
41040;BME280;48586;50.122;18.972;2022-08-18T10:45:11;98215.56;;;38.43;32.22
41040;BME280;48586;50.122;18.972;2022-08-18T10:48:18;98202.91;;;38.46;32.59
41040;BME280;48586;50.122;18.972;2022-08-18T10:51:28;98208.75;;;38.62;32.18
41040;BME280;48586;50.122;18.972;2022-08-18T10:54:38;98196.53;;;39.08;31.54
41040;BME280;48586;50.122;18.972;2022-08-18T10:58:00;98192.91;;;39.56;29.68
41040;BME280;48586;50.122;18.972;2022-08-18T11:01:16;98193.56;;;39.74;30.37
41040;BME280;48586;50.122;18.972;2022-08-18T11:04:25;98191.78;;;39.91;28.72
41040;BME280;48586;50.122;18.972;2022-08-18T11:07:30;98187.63;;;40.03;30.26
41040;BME280;48586;50.122;18.972;2022-08-18T11:10:36;98192.50;;;39.95;29.27
41040;BME280;48586;50.122;18.972;2022-08-18T11:13:55;98188.88;;;39.98;26.91
41040;BME280;48586;50.122;18.972;2022-08-18T11:17:09;98179.28;;;40.37;29.55
41040;BME280;48586;50.122;18.972;2022-08-18T11:20:17;98177.97;;;40.72;28.73
41040;BME280;48586;50.122;18.972;2022-08-18T11:23:22;98167.97;;;41.02;28.78
41040;BME280;48586;50.122;18.972;2022-08-18T11:26:28;98163.53;;;41.28;27.86
41040;BME280;48586;50.122;18.972;2022-08-18T11:29:32;98152.31;;;41.55;27.85
41040;BME280;48586;50.122;18.972;2022-08-18T11:32:37;98153.97;;;41.72;27.92
41040;BME280;48586;50.122;18.972;2022-08-18T11:35:44;98151.31;;;41.85;27.00
41040;BME280;48586;50.122;18.972;2022-08-18T11:38:54;98149.22;;;42.09;25.94
41040;BME280;48586;50.122;18.972;2022-08-18T11:41:57;98147.22;;;42.10;27.15
41040;BME280;48586;50.122;18.972;2022-08-18T11:45:14;98141.50;;;42.17;26.92
41040;BME280;48586;50.122;18.972;2022-08-18T11:48:20;98132.84;;;42.31;26.82
41040;BME280;48586;50.122;18.972;2022-08-18T11:51:26;98143.91;;;42.35;26.22
41040;BME280;48586;50.122;18.972;2022-08-18T11:54:38;98141.91;;;42.15;24.49
41040;BME280;48586;50.122;18.972;2022-08-18T11:57:48;98137.53;;;41.98;25.13
41040;BME280;48586;50.122;18.972;2022-08-18T12:00:55;98119.53;;;42.22;25.73
41040;BME280;48586;50.122;18.972;2022-08-18T12:04:07;98119.09;;;42.24;24.71
41040;BME280;48586;50.122;18.972;2022-08-18T12:07:12;98132.16;;;42.43;25.40
41040;BME280;48586;50.122;18.972;2022-08-18T12:10:21;98134.59;;;42.41;23.91
41040;BME280;48586;50.122;18.972;2022-08-18T12:13:24;98128.16;;;42.44;25.70
41040;BME280;48586;50.122;18.972;2022-08-18T12:16:32;98122.66;;;42.57;24.65
41040;BME280;48586;50.122;18.972;2022-08-18T12:19:38;98122.34;;;42.71;24.49
41040;BME280;48586;50.122;18.972;2022-08-18T12:22:42;98111.47;;;42.77;24.55
41040;BME280;48586;50.122;18.972;2022-08-18T12:25:46;98111.34;;;42.97;24.16
41040;BME280;48586;50.122;18.972;2022-08-18T12:28:48;98106.81;;;43.32;24.69
41040;BME280;48586;50.122;18.972;2022-08-18T12:31:52;98097.44;;;43.55;23.77
41040;BME280;48586;50.122;18.972;2022-08-18T12:34:55;98097.66;;;43.32;23.58
41040;BME280;48586;50.122;18.972;2022-08-18T12:37:57;98094.00;;;43.35;23.73
41040;BME280;48586;50.122;18.972;2022-08-18T12:41:01;98094.19;;;43.28;23.19
41040;BME280;48586;50.122;18.972;2022-08-18T12:44:04;98090.78;;;42.91;23.72
41040;BME280;48586;50.122;18.972;2022-08-18T12:47:10;98084.47;;;42.74;23.42
41040;BME280;48586;50.122;18.972;2022-08-18T12:50:12;98073.41;;;42.70;23.81
41040;BME280;48586;50.122;18.972;2022-08-18T12:53:15;98090.28;;;42.47;24.09
41040;BME280;48586;50.122;18.972;2022-08-18T12:56:21;98106.09;;;42.17;23.59
41040;BME280;48586;50.122;18.972;2022-08-18T12:59:24;98103.34;;;41.81;24.07
41040;BME280;48586;50.122;18.972;2022-08-18T13:02:27;98110.19;;;41.33;23.92
41040;BME280;48586;50.122;18.972;2022-08-18T13:05:29;98108.34;;;40.83;24.50
41040;BME280;48586;50.122;18.972;2022-08-18T13:08:31;98112.75;;;40.30;25.17
41040;BME280;48586;50.122;18.972;2022-08-18T13:11:34;98116.78;;;39.64;25.35
41040;BME280;48586;50.122;18.972;2022-08-18T13:14:37;98114.47;;;38.80;27.00
41040;BME280;48586;50.122;18.972;2022-08-18T13:17:38;98120.72;;;38.36;27.73
41040;BME280;48586;50.122;18.972;2022-08-18T13:20:41;98142.25;;;37.96;27.69
41040;BME280;48586;50.122;18.972;2022-08-18T13:23:43;98140.47;;;37.43;27.83
41040;BME280;48586;50.122;18.972;2022-08-18T13:26:47;98148.81;;;37.00;28.63
41040;BME280;48586;50.122;18.972;2022-08-18T13:29:49;98142.88;;;36.83;29.20
41040;BME280;48586;50.122;18.972;2022-08-18T13:32:51;98140.47;;;36.39;29.49
41040;BME280;48586;50.122;18.972;2022-08-18T13:35:55;98128.16;;;36.01;29.95
41040;BME280;48586;50.122;18.972;2022-08-18T13:38:57;98138.28;;;35.75;30.97
41040;BME280;48586;50.122;18.972;2022-08-18T13:42:02;98139.34;;;35.53;30.46
41040;BME280;48586;50.122;18.972;2022-08-18T13:45:05;98138.31;;;35.13;30.65
41040;BME280;48586;50.122;18.972;2022-08-18T13:48:07;98145.97;;;34.86;30.71
41040;BME280;48586;50.122;18.972;2022-08-18T13:51:14;98137.56;;;34.72;30.81
41040;BME280;48586;50.122;18.972;2022-08-18T13:54:20;98135.22;;;34.70;31.27
41040;BME280;48586;50.122;18.972;2022-08-18T13:57:24;98134.75;;;34.61;31.03
41040;BME280;48586;50.122;18.972;2022-08-18T14:00:27;98143.25;;;34.45;31.27
41040;BME280;48586;50.122;18.972;2022-08-18T14:03:29;98130.63;;;34.41;31.16
41040;BME280;48586;50.122;18.972;2022-08-18T14:06:31;98131.00;;;34.39;31.13
41040;BME280;48586;50.122;18.972;2022-08-18T14:09:34;98130.22;;;34.39;30.98
41040;BME280;48586;50.122;18.972;2022-08-18T14:12:38;98128.56;;;34.34;31.14
41040;BME280;48586;50.122;18.972;2022-08-18T14:15:41;98128.53;;;34.30;31.81
41040;BME280;48586;50.122;18.972;2022-08-18T14:18:46;98128.94;;;34.32;31.53
41040;BME280;48586;50.122;18.972;2022-08-18T14:22:08;98125.78;;;34.30;30.92
41040;BME280;48586;50.122;18.972;2022-08-18T14:25:40;98117.28;;;34.43;31.13
41040;BME280;48586;50.122;18.972;2022-08-18T14:29:01;98107.44;;;34.42;30.49
41040;BME280;48586;50.122;18.972;2022-08-18T14:32:05;98098.03;;;34.43;30.72
41040;BME280;48586;50.122;18.972;2022-08-18T14:35:09;98102.41;;;34.51;30.87
41040;BME280;48586;50.122;18.972;2022-08-18T14:38:14;98097.63;;;34.44;30.78
41040;BME280;48586;50.122;18.972;2022-08-18T14:41:18;98098.66;;;34.32;30.87
41040;BME280;48586;50.122;18.972;2022-08-18T14:44:23;98102.13;;;34.22;31.23
41040;BME280;48586;50.122;18.972;2022-08-18T14:47:26;98094.28;;;34.24;31.04
41040;BME280;48586;50.122;18.972;2022-08-18T14:50:28;98087.94;;;34.20;31.91
41040;BME280;48586;50.122;18.972;2022-08-18T14:53:32;98095.13;;;34.32;31.34
41040;BME280;48586;50.122;18.972;2022-08-18T14:56:37;98087.06;;;34.50;31.24
41040;BME280;48586;50.122;18.972;2022-08-18T14:59:41;98082.94;;;34.74;30.72
41040;BME280;48586;50.122;18.972;2022-08-18T15:02:45;98090.91;;;34.86;30.99
41040;BME280;48586;50.122;18.972;2022-08-18T15:05:49;98100.81;;;34.98;30.78
41040;BME280;48586;50.122;18.972;2022-08-18T15:08:52;98106.75;;;35.00;30.11
41040;BME280;48586;50.122;18.972;2022-08-18T15:11:56;98102.94;;;35.19;29.93
41040;BME280;48586;50.122;18.972;2022-08-18T15:15:00;98102.38;;;35.61;29.29
41040;BME280;48586;50.122;18.972;2022-08-18T15:18:03;98098.19;;;35.96;28.75
41040;BME280;48586;50.122;18.972;2022-08-18T15:21:06;98099.44;;;36.34;29.13
41040;BME280;48586;50.122;18.972;2022-08-18T15:24:26;98092.78;;;36.53;28.93
41040;BME280;48586;50.122;18.972;2022-08-18T15:27:46;98104.63;;;36.68;28.58
41040;BME280;48586;50.122;18.972;2022-08-18T15:30:51;98104.59;;;36.82;28.11
41040;BME280;48586;50.122;18.972;2022-08-18T15:33:53;98105.41;;;36.72;28.80
41040;BME280;48586;50.122;18.972;2022-08-18T15:36:56;98109.34;;;36.74;28.27
41040;BME280;48586;50.122;18.972;2022-08-18T15:40:01;98107.00;;;36.55;27.81
41040;BME280;48586;50.122;18.972;2022-08-18T15:43:11;98113.22;;;36.27;27.96
41040;BME280;48586;50.122;18.972;2022-08-18T15:46:15;98111.22;;;36.09;28.41
41040;BME280;48586;50.122;18.972;2022-08-18T15:49:18;98117.47;;;35.92;29.07
41040;BME280;48586;50.122;18.972;2022-08-18T15:52:21;98110.34;;;35.84;28.92
41040;BME280;48586;50.122;18.972;2022-08-18T15:55:26;98106.47;;;35.96;29.21
41040;BME280;48586;50.122;18.972;2022-08-18T15:58:29;98104.16;;;36.26;28.57
41040;BME280;48586;50.122;18.972;2022-08-18T16:01:33;98101.06;;;36.60;28.86
41040;BME280;48586;50.122;18.972;2022-08-18T16:04:37;98101.84;;;36.71;28.03
41040;BME280;48586;50.122;18.972;2022-08-18T16:07:40;98099.88;;;36.61;28.07
41040;BME280;48586;50.122;18.972;2022-08-18T16:10:44;98099.09;;;36.46;28.25
41040;BME280;48586;50.122;18.972;2022-08-18T16:13:47;98099.44;;;36.34;28.65
41040;BME280;48586;50.122;18.972;2022-08-18T16:16:51;98098.25;;;36.24;27.98
41040;BME280;48586;50.122;18.972;2022-08-18T16:19:54;98086.00;;;36.18;28.07
41040;BME280;48586;50.122;18.972;2022-08-18T16:22:57;98089.97;;;36.31;28.65
41040;BME280;48586;50.122;18.972;2022-08-18T16:25:59;98088.44;;;36.38;28.61
41040;BME280;48586;50.122;18.972;2022-08-18T16:29:02;98098.31;;;36.46;28.96
41040;BME280;48586;50.122;18.972;2022-08-18T16:32:06;98096.34;;;36.61;28.97